sensor_id;sensor_type;location;lat;lon;timestamp;temperature;humidity
5394;DHT22;2720;52.396;10.064;2022-09-21T00:01:58;6.90;99.90
5394;DHT22;2720;52.396;10.064;2022-09-21T00:04:25;6.80;99.90
5394;DHT22;2720;52.396;10.064;2022-09-21T00:06:52;6.80;99.90
5394;DHT22;2720;52.396;10.064;2022-09-21T00:09:19;6.80;99.90
5394;DHT22;2720;52.396;10.064;2022-09-21T00:11:46;6.70;99.90
5394;DHT22;2720;52.396;10.064;2022-09-21T00:14:13;6.70;99.90
5394;DHT22;2720;52.396;10.064;2022-09-21T00:16:42;6.70;99.90
5394;DHT22;2720;52.396;10.064;2022-09-21T00:19:09;6.70;99.90
5394;DHT22;2720;52.396;10.064;2022-09-21T00:21:37;6.70;99.90
5394;DHT22;2720;52.396;10.064;2022-09-21T00:24:05;6.80;99.90
5394;DHT22;2720;52.396;10.064;2022-09-21T00:26:32;6.80;99.90
5394;DHT22;2720;52.396;10.064;2022-09-21T00:29:00;6.70;99.90
5394;DHT22;2720;52.396;10.064;2022-09-21T00:31:28;6.60;99.90
5394;DHT22;2720;52.396;10.064;2022-09-21T00:33:58;6.50;99.90
5394;DHT22;2720;52.396;10.064;2022-09-21T00:36:26;6.50;99.90
5394;DHT22;2720;52.396;10.064;2022-09-21T00:38:55;6.50;99.90
5394;DHT22;2720;52.396;10.064;2022-09-21T00:41:23;6.40;99.90
5394;DHT22;2720;52.396;10.064;2022-09-21T00:47:03;6.40;99.90
5394;DHT22;2720;52.396;10.064;2022-09-21T00:49:35;6.40;99.90
5394;DHT22;2720;52.396;10.064;2022-09-21T00:52:04;6.40;99.90
5394;DHT22;2720;52.396;10.064;2022-09-21T00:54:36;6.40;99.90
5394;DHT22;2720;52.396;10.064;2022-09-21T00:57:04;6.40;99.90
5394;DHT22;2720;52.396;10.064;2022-09-21T00:59:35;6.40;99.90
5394;DHT22;2720;52.396;10.064;2022-09-21T01:02:04;6.40;99.90
5394;DHT22;2720;52.396;10.064;2022-09-21T01:04:31;6.30;99.90
5394;DHT22;2720;52.396;10.064;2022-09-21T01:07:02;6.30;99.90
5394;DHT22;2720;52.396;10.064;2022-09-21T01:09:30;6.30;99.90
5394;DHT22;2720;52.396;10.064;2022-09-21T01:12:06;6.30;99.90
5394;DHT22;2720;52.396;10.064;2022-09-21T01:14:51;6.30;99.90
5394;DHT22;2720;52.396;10.064;2022-09-21T01:17:24;6.30;99.90
5394;DHT22;2720;52.396;10.064;2022-09-21T01:20:11;6.20;99.90
5394;DHT22;2720;52.396;10.064;2022-09-21T01:22:58;6.20;99.90
5394;DHT22;2720;52.396;10.064;2022-09-21T01:25:32;6.20;99.90
5394;DHT22;2720;52.396;10.064;2022-09-21T01:28:07;6.20;99.90
5394;DHT22;2720;52.396;10.064;2022-09-21T01:30:40;6.20;99.90
5394;DHT22;2720;52.396;10.064;2022-09-21T01:33:13;6.20;99.90
5394;DHT22;2720;52.396;10.064;2022-09-21T01:35:45;6.10;99.90
5394;DHT22;2720;52.396;10.064;2022-09-21T01:38:16;6.10;99.90
5394;DHT22;2720;52.396;10.064;2022-09-21T01:40:49;6.10;99.90
5394;DHT22;2720;52.396;10.064;2022-09-21T01:43:20;6.10;99.90
5394;DHT22;2720;52.396;10.064;2022-09-21T01:45:52;6.00;99.90
5394;DHT22;2720;52.396;10.064;2022-09-21T01:48:23;6.00;99.90
5394;DHT22;2720;52.396;10.064;2022-09-21T01:50:52;6.00;99.90
5394;DHT22;2720;52.396;10.064;2022-09-21T01:53:23;6.00;99.90
5394;DHT22;2720;52.396;10.064;2022-09-21T01:55:55;6.00;99.90
5394;DHT22;2720;52.396;10.064;2022-09-21T01:58:29;6.10;99.90
5394;DHT22;2720;52.396;10.064;2022-09-21T02:00:59;6.00;99.90
5394;DHT22;2720;52.396;10.064;2022-09-21T02:03:29;6.00;99.90
5394;DHT22;2720;52.396;10.064;2022-09-21T02:05:57;6.00;99.90
5394;DHT22;2720;52.396;10.064;2022-09-21T02:08:25;6.00;99.90
5394;DHT22;2720;52.396;10.064;2022-09-21T02:10:53;6.00;99.90
5394;DHT22;2720;52.396;10.064;2022-09-21T02:13:22;6.00;99.90
5394;DHT22;2720;52.396;10.064;2022-09-21T02:16:06;6.00;99.90
5394;DHT22;2720;52.396;10.064;2022-09-21T02:18:42;5.90;99.90
5394;DHT22;2720;52.396;10.064;2022-09-21T02:21:18;5.90;99.90
5394;DHT22;2720;52.396;10.064;2022-09-21T02:23:52;6.00;99.90
5394;DHT22;2720;52.396;10.064;2022-09-21T02:26:26;6.00;99.90
5394;DHT22;2720;52.396;10.064;2022-09-21T02:29:04;6.00;99.90
5394;DHT22;2720;52.396;10.064;2022-09-21T02:31:38;6.00;99.90
5394;DHT22;2720;52.396;10.064;2022-09-21T02:34:14;6.00;99.90
5394;DHT22;2720;52.396;10.064;2022-09-21T02:36:45;6.00;99.90
5394;DHT22;2720;52.396;10.064;2022-09-21T02:39:16;6.00;99.90
5394;DHT22;2720;52.396;10.064;2022-09-21T02:41:55;6.10;99.90
5394;DHT22;2720;52.396;10.064;2022-09-21T02:44:32;6.10;99.90
5394;DHT22;2720;52.396;10.064;2022-09-21T02:47:06;6.10;99.90
5394;DHT22;2720;52.396;10.064;2022-09-21T02:49:37;6.10;99.90
5394;DHT22;2720;52.396;10.064;2022-09-21T02:52:10;6.10;99.90
5394;DHT22;2720;52.396;10.064;2022-09-21T02:54:39;6.00;99.90
5394;DHT22;2720;52.396;10.064;2022-09-21T02:57:08;5.90;99.90
5394;DHT22;2720;52.396;10.064;2022-09-21T02:59:37;5.80;99.90
5394;DHT22;2720;52.396;10.064;2022-09-21T03:02:06;5.80;99.90
5394;DHT22;2720;52.396;10.064;2022-09-21T03:04:35;5.80;99.90
5394;DHT22;2720;52.396;10.064;2022-09-21T03:07:02;5.80;99.90
5394;DHT22;2720;52.396;10.064;2022-09-21T03:09:29;5.80;99.90
5394;DHT22;2720;52.396;10.064;2022-09-21T03:11:56;5.80;99.90
5394;DHT22;2720;52.396;10.064;2022-09-21T03:14:23;5.80;99.90
5394;DHT22;2720;52.396;10.064;2022-09-21T03:16:50;5.90;99.90
5394;DHT22;2720;52.396;10.064;2022-09-21T03:19:19;5.80;99.90
5394;DHT22;2720;52.396;10.064;2022-09-21T03:21:46;5.80;99.90
5394;DHT22;2720;52.396;10.064;2022-09-21T03:24:13;5.70;99.90
5394;DHT22;2720;52.396;10.064;2022-09-21T03:27:00;5.70;99.90
5394;DHT22;2720;52.396;10.064;2022-09-21T03:29:27;5.70;99.90
5394;DHT22;2720;52.396;10.064;2022-09-21T03:31:54;5.70;99.90
5394;DHT22;2720;52.396;10.064;2022-09-21T03:34:23;5.70;99.90
5394;DHT22;2720;52.396;10.064;2022-09-21T03:36:50;5.70;99.90
5394;DHT22;2720;52.396;10.064;2022-09-21T03:39:17;5.70;99.90
5394;DHT22;2720;52.396;10.064;2022-09-21T03:41:44;5.60;99.90
5394;DHT22;2720;52.396;10.064;2022-09-21T03:44:11;5.60;99.90
5394;DHT22;2720;52.396;10.064;2022-09-21T03:46:40;5.50;99.90
5394;DHT22;2720;52.396;10.064;2022-09-21T03:49:07;5.50;99.90
5394;DHT22;2720;52.396;10.064;2022-09-21T03:51:35;5.50;99.90
5394;DHT22;2720;52.396;10.064;2022-09-21T03:54:03;5.40;99.90
5394;DHT22;2720;52.396;10.064;2022-09-21T03:56:30;5.30;99.90
5394;DHT22;2720;52.396;10.064;2022-09-21T03:58:57;5.30;99.90
5394;DHT22;2720;52.396;10.064;2022-09-21T04:01:24;5.20;99.90
5394;DHT22;2720;52.396;10.064;2022-09-21T04:03:51;5.30;99.90
5394;DHT22;2720;52.396;10.064;2022-09-21T04:06:18;5.40;99.90
5394;DHT22;2720;52.396;10.064;2022-09-21T04:08:47;5.40;99.90
5394;DHT22;2720;52.396;10.064;2022-09-21T04:11:16;5.40;99.90
5394;DHT22;2720;52.396;10.064;2022-09-21T04:13:48;5.40;99.90
5394;DHT22;2720;52.396;10.064;2022-09-21T04:16:15;6.20;99.90
5394;DHT22;2720;52.396;10.064;2022-09-21T04:18:43;5.50;99.90
5394;DHT22;2720;52.396;10.064;2022-09-21T04:21:15;5.50;99.90
5394;DHT22;2720;52.396;10.064;2022-09-21T04:23:42;5.50;99.90
5394;DHT22;2720;52.396;10.064;2022-09-21T04:26:20;5.60;99.90
5394;DHT22;2720;52.396;10.064;2022-09-21T04:28:48;5.60;99.90
5394;DHT22;2720;52.396;10.064;2022-09-21T04:31:15;5.60;99.90
5394;DHT22;2720;52.396;10.064;2022-09-21T04:33:42;5.60;99.90
5394;DHT22;2720;52.396;10.064;2022-09-21T04:36:09;5.60;99.90
5394;DHT22;2720;52.396;10.064;2022-09-21T04:38:36;5.60;99.90
5394;DHT22;2720;52.396;10.064;2022-09-21T04:41:03;5.60;99.90
5394;DHT22;2720;52.396;10.064;2022-09-21T04:43:32;5.50;99.90
5394;DHT22;2720;52.396;10.064;2022-09-21T04:46:06;5.50;99.90
5394;DHT22;2720;52.396;10.064;2022-09-21T04:48:33;5.50;99.90
5394;DHT22;2720;52.396;10.064;2022-09-21T04:51:00;5.40;99.90
5394;DHT22;2720;52.396;10.064;2022-09-21T04:53:28;5.40;99.90
5394;DHT22;2720;52.396;10.064;2022-09-21T04:55:55;5.30;99.90
5394;DHT22;2720;52.396;10.064;2022-09-21T04:58:22;5.40;99.90
5394;DHT22;2720;52.396;10.064;2022-09-21T05:00:51;5.30;99.90
5394;DHT22;2720;52.396;10.064;2022-09-21T05:03:20;5.20;99.90
5394;DHT22;2720;52.396;10.064;2022-09-21T05:05:47;5.20;99.90
5394;DHT22;2720;52.396;10.064;2022-09-21T05:08:15;5.30;99.90
5394;DHT22;2720;52.396;10.064;2022-09-21T05:10:42;5.30;99.90
5394;DHT22;2720;52.396;10.064;2022-09-21T05:13:08;5.30;99.90
5394;DHT22;2720;52.396;10.064;2022-09-21T05:15:36;5.30;99.90
5394;DHT22;2720;52.396;10.064;2022-09-21T05:18:05;5.40;99.90
5394;DHT22;2720;52.396;10.064;2022-09-21T05:20:32;5.40;99.90
5394;DHT22;2720;52.396;10.064;2022-09-21T05:23:00;5.40;99.90
5394;DHT22;2720;52.396;10.064;2022-09-21T05:25:27;5.50;99.90
5394;DHT22;2720;52.396;10.064;2022-09-21T05:27:55;5.40;99.90
5394;DHT22;2720;52.396;10.064;2022-09-21T05:30:22;5.40;99.90
5394;DHT22;2720;52.396;10.064;2022-09-21T05:32:55;5.40;99.90
5394;DHT22;2720;52.396;10.064;2022-09-21T05:35:34;5.40;99.90
5394;DHT22;2720;52.396;10.064;2022-09-21T05:38:05;5.30;99.90
5394;DHT22;2720;52.396;10.064;2022-09-21T05:40:34;5.30;99.90
5394;DHT22;2720;52.396;10.064;2022-09-21T05:43:02;5.30;99.90
5394;DHT22;2720;52.396;10.064;2022-09-21T05:45:29;5.40;99.90
5394;DHT22;2720;52.396;10.064;2022-09-21T05:48:03;5.40;99.90
5394;DHT22;2720;52.396;10.064;2022-09-21T05:50:49;5.50;99.90
5394;DHT22;2720;52.396;10.064;2022-09-21T05:53:34;5.50;99.90
5394;DHT22;2720;52.396;10.064;2022-09-21T05:56:12;5.60;99.90
5394;DHT22;2720;52.396;10.064;2022-09-21T05:58:49;5.70;99.90
5394;DHT22;2720;52.396;10.064;2022-09-21T06:01:30;5.80;99.90
5394;DHT22;2720;52.396;10.064;2022-09-21T06:04:01;5.90;99.90
5394;DHT22;2720;52.396;10.064;2022-09-21T06:06:29;6.10;99.90
5394;DHT22;2720;52.396;10.064;2022-09-21T06:08:56;6.10;99.90
5394;DHT22;2720;52.396;10.064;2022-09-21T06:11:23;7.10;99.90
5394;DHT22;2720;52.396;10.064;2022-09-21T06:13:50;6.20;99.90
5394;DHT22;2720;52.396;10.064;2022-09-21T06:16:17;6.30;99.90
5394;DHT22;2720;52.396;10.064;2022-09-21T06:18:44;6.40;99.90
5394;DHT22;2720;52.396;10.064;2022-09-21T06:21:11;6.60;99.90
5394;DHT22;2720;52.396;10.064;2022-09-21T06:23:39;6.60;99.90
5394;DHT22;2720;52.396;10.064;2022-09-21T06:26:06;6.70;99.90
5394;DHT22;2720;52.396;10.064;2022-09-21T06:28:33;6.80;99.90
5394;DHT22;2720;52.396;10.064;2022-09-21T06:31:00;6.90;99.90
5394;DHT22;2720;52.396;10.064;2022-09-21T06:33:27;6.90;99.90
5394;DHT22;2720;52.396;10.064;2022-09-21T06:35:56;7.10;99.90
5394;DHT22;2720;52.396;10.064;2022-09-21T06:38:24;7.10;99.90
5394;DHT22;2720;52.396;10.064;2022-09-21T06:40:53;7.20;99.90
5394;DHT22;2720;52.396;10.064;2022-09-21T06:43:20;7.30;99.90
5394;DHT22;2720;52.396;10.064;2022-09-21T06:45:55;7.30;99.90
5394;DHT22;2720;52.396;10.064;2022-09-21T06:48:22;7.30;99.90
5394;DHT22;2720;52.396;10.064;2022-09-21T06:50:49;7.40;99.90
5394;DHT22;2720;52.396;10.064;2022-09-21T06:53:17;7.40;99.90
5394;DHT22;2720;52.396;10.064;2022-09-21T06:55:44;7.50;99.90
5394;DHT22;2720;52.396;10.064;2022-09-21T06:58:12;7.50;99.90
5394;DHT22;2720;52.396;10.064;2022-09-21T07:00:39;7.60;99.90
5394;DHT22;2720;52.396;10.064;2022-09-21T07:03:09;7.60;99.90
5394;DHT22;2720;52.396;10.064;2022-09-21T07:05:36;7.70;99.90
5394;DHT22;2720;52.396;10.064;2022-09-21T07:08:03;7.70;99.90
5394;DHT22;2720;52.396;10.064;2022-09-21T07:10:30;7.80;99.90
5394;DHT22;2720;52.396;10.064;2022-09-21T07:13:01;7.90;99.90
5394;DHT22;2720;52.396;10.064;2022-09-21T07:15:30;7.90;99.90
5394;DHT22;2720;52.396;10.064;2022-09-21T07:17:58;8.00;99.90
5394;DHT22;2720;52.396;10.064;2022-09-21T07:20:25;8.10;99.90
5394;DHT22;2720;52.396;10.064;2022-09-21T07:22:52;8.20;99.90
5394;DHT22;2720;52.396;10.064;2022-09-21T07:25:19;8.30;99.90
5394;DHT22;2720;52.396;10.064;2022-09-21T07:27:46;8.30;99.90
5394;DHT22;2720;52.396;10.064;2022-09-21T07:30:13;8.40;99.90
5394;DHT22;2720;52.396;10.064;2022-09-21T07:32:41;8.40;99.90
5394;DHT22;2720;52.396;10.064;2022-09-21T07:35:08;8.50;99.90
5394;DHT22;2720;52.396;10.064;2022-09-21T07:37:36;8.60;99.90
5394;DHT22;2720;52.396;10.064;2022-09-21T07:40:04;8.60;99.90
5394;DHT22;2720;52.396;10.064;2022-09-21T07:42:31;8.70;99.90
5394;DHT22;2720;52.396;10.064;2022-09-21T07:44:58;8.80;99.90
5394;DHT22;2720;52.396;10.064;2022-09-21T07:47:25;8.90;99.90
5394;DHT22;2720;52.396;10.064;2022-09-21T07:49:54;8.90;99.90
5394;DHT22;2720;52.396;10.064;2022-09-21T07:52:21;9.00;99.90
5394;DHT22;2720;52.396;10.064;2022-09-21T07:54:48;9.10;99.90
5394;DHT22;2720;52.396;10.064;2022-09-21T07:57:15;9.10;99.90
5394;DHT22;2720;52.396;10.064;2022-09-21T07:59:59;9.10;99.90
5394;DHT22;2720;52.396;10.064;2022-09-21T08:02:26;9.20;99.90
5394;DHT22;2720;52.396;10.064;2022-09-21T08:04:54;9.30;99.90
5394;DHT22;2720;52.396;10.064;2022-09-21T08:07:21;9.30;99.90
5394;DHT22;2720;52.396;10.064;2022-09-21T08:09:48;9.40;99.90
5394;DHT22;2720;52.396;10.064;2022-09-21T08:12:16;9.50;99.90
5394;DHT22;2720;52.396;10.064;2022-09-21T08:14:45;9.50;99.90
5394;DHT22;2720;52.396;10.064;2022-09-21T08:17:13;9.60;99.90
5394;DHT22;2720;52.396;10.064;2022-09-21T08:19:40;9.70;99.90
5394;DHT22;2720;52.396;10.064;2022-09-21T08:22:08;9.80;99.90
5394;DHT22;2720;52.396;10.064;2022-09-21T08:24:36;9.80;99.90
5394;DHT22;2720;52.396;10.064;2022-09-21T08:27:03;9.80;99.90
5394;DHT22;2720;52.396;10.064;2022-09-21T08:29:30;9.90;99.90
5394;DHT22;2720;52.396;10.064;2022-09-21T08:31:57;10.00;99.90
5394;DHT22;2720;52.396;10.064;2022-09-21T08:34:24;10.00;99.90
5394;DHT22;2720;52.396;10.064;2022-09-21T08:36:52;10.20;99.90
5394;DHT22;2720;52.396;10.064;2022-09-21T08:39:20;10.20;99.90
5394;DHT22;2720;52.396;10.064;2022-09-21T08:41:59;10.30;99.90
5394;DHT22;2720;52.396;10.064;2022-09-21T08:44:36;10.30;99.90
5394;DHT22;2720;52.396;10.064;2022-09-21T08:47:09;10.40;99.90
5394;DHT22;2720;52.396;10.064;2022-09-21T08:49:39;10.40;99.90
5394;DHT22;2720;52.396;10.064;2022-09-21T08:52:11;10.50;99.90
5394;DHT22;2720;52.396;10.064;2022-09-21T08:54:43;10.60;99.90
5394;DHT22;2720;52.396;10.064;2022-09-21T08:57:14;10.70;99.90
5394;DHT22;2720;52.396;10.064;2022-09-21T08:59:45;10.90;99.90
5394;DHT22;2720;52.396;10.064;2022-09-21T09:02:30;10.90;99.90
5394;DHT22;2720;52.396;10.064;2022-09-21T09:05:02;11.00;99.90
5394;DHT22;2720;52.396;10.064;2022-09-21T09:07:57;11.10;99.90
5394;DHT22;2720;52.396;10.064;2022-09-21T09:10:35;11.20;99.90
5394;DHT22;2720;52.396;10.064;2022-09-21T09:13:22;11.30;99.90
5394;DHT22;2720;52.396;10.064;2022-09-21T09:16:01;11.40;99.90
5394;DHT22;2720;52.396;10.064;2022-09-21T09:18:39;11.40;99.90
5394;DHT22;2720;52.396;10.064;2022-09-21T09:21:12;11.40;99.90
5394;DHT22;2720;52.396;10.064;2022-09-21T09:23:45;11.40;99.90
5394;DHT22;2720;52.396;10.064;2022-09-21T09:26:19;11.60;99.90
5394;DHT22;2720;52.396;10.064;2022-09-21T09:28:50;11.70;99.90
5394;DHT22;2720;52.396;10.064;2022-09-21T09:31:22;11.70;99.90
5394;DHT22;2720;52.396;10.064;2022-09-21T09:33:54;11.70;99.90
5394;DHT22;2720;52.396;10.064;2022-09-21T09:36:24;11.80;99.90
5394;DHT22;2720;52.396;10.064;2022-09-21T09:38:55;11.90;99.90
5394;DHT22;2720;52.396;10.064;2022-09-21T09:41:41;12.00;99.90
5394;DHT22;2720;52.396;10.064;2022-09-21T09:44:23;12.00;99.90
5394;DHT22;2720;52.396;10.064;2022-09-21T09:47:01;12.00;99.90
5394;DHT22;2720;52.396;10.064;2022-09-21T09:49:38;12.10;99.90
5394;DHT22;2720;52.396;10.064;2022-09-21T09:52:09;12.20;99.90
5394;DHT22;2720;52.396;10.064;2022-09-21T09:54:37;12.20;99.90
5394;DHT22;2720;52.396;10.064;2022-09-21T09:57:06;12.30;99.90
5394;DHT22;2720;52.396;10.064;2022-09-21T09:59:37;12.40;99.90
5394;DHT22;2720;52.396;10.064;2022-09-21T10:02:09;12.50;99.90
5394;DHT22;2720;52.396;10.064;2022-09-21T10:04:54;12.60;99.90
5394;DHT22;2720;52.396;10.064;2022-09-21T10:07:33;12.70;99.90
5394;DHT22;2720;52.396;10.064;2022-09-21T10:10:00;12.90;99.90
5394;DHT22;2720;52.396;10.064;2022-09-21T10:12:29;12.90;99.90
5394;DHT22;2720;52.396;10.064;2022-09-21T10:14:57;13.00;99.90
5394;DHT22;2720;52.396;10.064;2022-09-21T10:17:26;13.00;99.90
5394;DHT22;2720;52.396;10.064;2022-09-21T10:20:00;13.00;99.90
5394;DHT22;2720;52.396;10.064;2022-09-21T10:22:28;13.20;99.90
5394;DHT22;2720;52.396;10.064;2022-09-21T10:24:56;13.30;99.90
5394;DHT22;2720;52.396;10.064;2022-09-21T10:27:26;13.40;99.90
5394;DHT22;2720;52.396;10.064;2022-09-21T10:29:55;13.40;99.90
5394;DHT22;2720;52.396;10.064;2022-09-21T10:32:24;13.30;99.90
5394;DHT22;2720;52.396;10.064;2022-09-21T10:35:13;13.50;99.90
5394;DHT22;2720;52.396;10.064;2022-09-21T10:37:42;13.70;99.90
5394;DHT22;2720;52.396;10.064;2022-09-21T10:40:23;13.80;99.90
5394;DHT22;2720;52.396;10.064;2022-09-21T10:42:53;13.90;99.90
5394;DHT22;2720;52.396;10.064;2022-09-21T10:45:23;14.00;99.90
5394;DHT22;2720;52.396;10.064;2022-09-21T10:47:53;12.60;99.90
5394;DHT22;2720;52.396;10.064;2022-09-21T10:50:23;14.20;99.90
5394;DHT22;2720;52.396;10.064;2022-09-21T10:52:56;14.20;99.90
5394;DHT22;2720;52.396;10.064;2022-09-21T10:55:24;14.30;99.90
5394;DHT22;2720;52.396;10.064;2022-09-21T10:57:53;14.60;99.90
5394;DHT22;2720;52.396;10.064;2022-09-21T11:00:31;14.50;99.90
5394;DHT22;2720;52.396;10.064;2022-09-21T11:05:45;14.50;99.90
5394;DHT22;2720;52.396;10.064;2022-09-21T11:08:18;14.70;99.90
5394;DHT22;2720;52.396;10.064;2022-09-21T11:10:52;12.40;99.90
5394;DHT22;2720;52.396;10.064;2022-09-21T11:13:26;15.10;99.90
5394;DHT22;2720;52.396;10.064;2022-09-21T11:16:00;15.20;99.90
5394;DHT22;2720;52.396;10.064;2022-09-21T11:18:35;15.40;99.90
5394;DHT22;2720;52.396;10.064;2022-09-21T11:21:14;15.50;99.90
5394;DHT22;2720;52.396;10.064;2022-09-21T11:23:48;15.60;99.90
5394;DHT22;2720;52.396;10.064;2022-09-21T11:26:23;15.60;99.90
5394;DHT22;2720;52.396;10.064;2022-09-21T11:28:55;15.80;99.90
5394;DHT22;2720;52.396;10.064;2022-09-21T11:31:43;16.00;99.90
5394;DHT22;2720;52.396;10.064;2022-09-21T11:37:17;17.00;99.90
5394;DHT22;2720;52.396;10.064;2022-09-21T11:39:57;17.70;99.90
5394;DHT22;2720;52.396;10.064;2022-09-21T11:42:39;18.20;99.90
5394;DHT22;2720;52.396;10.064;2022-09-21T11:45:33;18.70;99.90
5394;DHT22;2720;52.396;10.064;2022-09-21T11:48:14;19.40;99.90
5394;DHT22;2720;52.396;10.064;2022-09-21T11:50:45;19.90;99.90
5394;DHT22;2720;52.396;10.064;2022-09-21T11:53:16;19.90;99.90
5394;DHT22;2720;52.396;10.064;2022-09-21T11:55:56;19.50;99.90
5394;DHT22;2720;52.396;10.064;2022-09-21T11:58:27;18.90;99.90
5394;DHT22;2720;52.396;10.064;2022-09-21T12:00:58;18.20;99.90
5394;DHT22;2720;52.396;10.064;2022-09-21T12:03:48;17.90;99.90
5394;DHT22;2720;52.396;10.064;2022-09-21T12:06:19;18.10;99.90
5394;DHT22;2720;52.396;10.064;2022-09-21T12:08:51;18.70;99.90
5394;DHT22;2720;52.396;10.064;2022-09-21T12:11:26;19.10;99.90
5394;DHT22;2720;52.396;10.064;2022-09-21T12:13:56;19.60;99.90
5394;DHT22;2720;52.396;10.064;2022-09-21T12:16:27;20.20;99.90
5394;DHT22;2720;52.396;10.064;2022-09-21T12:18:59;20.70;99.90
5394;DHT22;2720;52.396;10.064;2022-09-21T12:21:29;21.10;99.90
5394;DHT22;2720;52.396;10.064;2022-09-21T12:24:00;21.20;99.90
5394;DHT22;2720;52.396;10.064;2022-09-21T12:26:30;21.40;99.90
5394;DHT22;2720;52.396;10.064;2022-09-21T12:28:59;21.60;99.90
5394;DHT22;2720;52.396;10.064;2022-09-21T12:31:28;21.60;99.90
5394;DHT22;2720;52.396;10.064;2022-09-21T12:33:56;21.90;99.90
5394;DHT22;2720;52.396;10.064;2022-09-21T12:36:26;21.80;99.90
5394;DHT22;2720;52.396;10.064;2022-09-21T12:39:06;21.60;99.90
5394;DHT22;2720;52.396;10.064;2022-09-21T12:41:35;21.40;99.90
5394;DHT22;2720;52.396;10.064;2022-09-21T12:44:08;21.00;99.90
5394;DHT22;2720;52.396;10.064;2022-09-21T12:46:39;20.60;99.90
5394;DHT22;2720;52.396;10.064;2022-09-21T12:49:10;20.30;99.90
5394;DHT22;2720;52.396;10.064;2022-09-21T12:51:41;20.00;99.90
5394;DHT22;2720;52.396;10.064;2022-09-21T12:54:12;20.10;99.90
5394;DHT22;2720;52.396;10.064;2022-09-21T12:56:43;20.30;99.90
5394;DHT22;2720;52.396;10.064;2022-09-21T12:59:15;20.70;99.90
5394;DHT22;2720;52.396;10.064;2022-09-21T13:01:45;20.80;99.90
5394;DHT22;2720;52.396;10.064;2022-09-21T13:09:45;21.30;99.90
5394;DHT22;2720;52.396;10.064;2022-09-21T13:12:13;20.80;99.90
5394;DHT22;2720;52.396;10.064;2022-09-21T13:14:44;20.10;99.90
5394;DHT22;2720;52.396;10.064;2022-09-21T13:17:18;20.20;99.90
5394;DHT22;2720;52.396;10.064;2022-09-21T13:19:52;20.80;99.90
5394;DHT22;2720;52.396;10.064;2022-09-21T13:22:21;21.50;99.90
5394;DHT22;2720;52.396;10.064;2022-09-21T13:24:58;22.00;99.90
5394;DHT22;2720;52.396;10.064;2022-09-21T13:30:27;22.70;99.90
5394;DHT22;2720;52.396;10.064;2022-09-21T13:32:56;23.20;99.90
5394;DHT22;2720;52.396;10.064;2022-09-21T13:38:23;23.90;99.90
5394;DHT22;2720;52.396;10.064;2022-09-21T13:40:56;24.00;99.90
5394;DHT22;2720;52.396;10.064;2022-09-21T13:43:41;24.10;99.90
5394;DHT22;2720;52.396;10.064;2022-09-21T13:49:24;24.10;99.90
5394;DHT22;2720;52.396;10.064;2022-09-21T13:51:57;24.10;99.90
5394;DHT22;2720;52.396;10.064;2022-09-21T13:54:27;24.30;99.90
5394;DHT22;2720;52.396;10.064;2022-09-21T13:57:01;24.40;99.90
5394;DHT22;2720;52.396;10.064;2022-09-21T13:59:32;24.30;99.90
5394;DHT22;2720;52.396;10.064;2022-09-21T14:02:01;24.10;99.90
5394;DHT22;2720;52.396;10.064;2022-09-21T14:04:32;23.50;99.90
5394;DHT22;2720;52.396;10.064;2022-09-21T14:07:04;23.20;99.90
5394;DHT22;2720;52.396;10.064;2022-09-21T14:09:37;22.80;99.90
5394;DHT22;2720;52.396;10.064;2022-09-21T14:12:18;22.20;99.90
5394;DHT22;2720;52.396;10.064;2022-09-21T14:15:09;21.90;99.90
5394;DHT22;2720;52.396;10.064;2022-09-21T14:17:38;21.50;99.90
5394;DHT22;2720;52.396;10.064;2022-09-21T14:20:25;21.20;99.90
5394;DHT22;2720;52.396;10.064;2022-09-21T14:23:10;20.80;99.90
5394;DHT22;2720;52.396;10.064;2022-09-21T14:25:49;20.50;99.90
5394;DHT22;2720;52.396;10.064;2022-09-21T14:28:27;20.40;99.90
5394;DHT22;2720;52.396;10.064;2022-09-21T14:31:02;20.30;99.90
5394;DHT22;2720;52.396;10.064;2022-09-21T14:33:34;20.20;99.90
5394;DHT22;2720;52.396;10.064;2022-09-21T14:36:08;20.10;99.90
5394;DHT22;2720;52.396;10.064;2022-09-21T14:38:42;20.10;99.90
5394;DHT22;2720;52.396;10.064;2022-09-21T14:41:16;20.10;99.90
5394;DHT22;2720;52.396;10.064;2022-09-21T14:43:48;20.20;99.90
5394;DHT22;2720;52.396;10.064;2022-09-21T14:46:34;20.20;99.90
5394;DHT22;2720;52.396;10.064;2022-09-21T14:49:21;20.10;99.90
5394;DHT22;2720;52.396;10.064;2022-09-21T14:51:52;20.00;99.90
5394;DHT22;2720;52.396;10.064;2022-09-21T14:54:38;19.90;99.90
5394;DHT22;2720;52.396;10.064;2022-09-21T14:57:14;19.80;99.90
5394;DHT22;2720;52.396;10.064;2022-09-21T14:59:49;19.60;99.90
5394;DHT22;2720;52.396;10.064;2022-09-21T15:02:20;19.60;99.90
5394;DHT22;2720;52.396;10.064;2022-09-21T15:04:57;19.40;99.90
5394;DHT22;2720;52.396;10.064;2022-09-21T15:07:30;19.40;99.90
5394;DHT22;2720;52.396;10.064;2022-09-21T15:10:20;19.40;99.90
5394;DHT22;2720;52.396;10.064;2022-09-21T15:13:10;19.50;99.90
5394;DHT22;2720;52.396;10.064;2022-09-21T15:15:46;19.40;99.90
5394;DHT22;2720;52.396;10.064;2022-09-21T15:18:19;19.30;99.90
5394;DHT22;2720;52.396;10.064;2022-09-21T15:20:53;19.40;99.90
5394;DHT22;2720;52.396;10.064;2022-09-21T15:23:26;19.50;99.90
5394;DHT22;2720;52.396;10.064;2022-09-21T15:25:54;19.60;99.90
5394;DHT22;2720;52.396;10.064;2022-09-21T15:28:23;19.90;99.90
5394;DHT22;2720;52.396;10.064;2022-09-21T15:30:52;20.20;99.90
5394;DHT22;2720;52.396;10.064;2022-09-21T15:33:22;20.60;99.90
5394;DHT22;2720;52.396;10.064;2022-09-21T15:35:49;20.80;99.90
5394;DHT22;2720;52.396;10.064;2022-09-21T15:38:28;21.10;99.90
5394;DHT22;2720;52.396;10.064;2022-09-21T15:40:55;21.30;99.90
5394;DHT22;2720;52.396;10.064;2022-09-21T15:43:22;21.50;99.90
5394;DHT22;2720;52.396;10.064;2022-09-21T15:45:50;21.40;99.90
5394;DHT22;2720;52.396;10.064;2022-09-21T15:48:20;21.10;99.90
5394;DHT22;2720;52.396;10.064;2022-09-21T15:50:48;20.60;99.90
5394;DHT22;2720;52.396;10.064;2022-09-21T15:53:17;20.50;99.90
5394;DHT22;2720;52.396;10.064;2022-09-21T15:55:46;20.60;99.90
5394;DHT22;2720;52.396;10.064;2022-09-21T15:58:16;20.80;99.90
5394;DHT22;2720;52.396;10.064;2022-09-21T16:00:49;20.70;99.90
5394;DHT22;2720;52.396;10.064;2022-09-21T16:03:21;20.60;99.90
5394;DHT22;2720;52.396;10.064;2022-09-21T16:05:50;20.30;99.90
5394;DHT22;2720;52.396;10.064;2022-09-21T16:08:20;19.80;99.90
5394;DHT22;2720;52.396;10.064;2022-09-21T16:10:47;19.40;99.90
5394;DHT22;2720;52.396;10.064;2022-09-21T16:13:17;19.00;99.90
5394;DHT22;2720;52.396;10.064;2022-09-21T16:16:01;18.60;99.90
5394;DHT22;2720;52.396;10.064;2022-09-21T16:18:31;18.20;99.90
5394;DHT22;2720;52.396;10.064;2022-09-21T16:21:07;17.90;99.90
5394;DHT22;2720;52.396;10.064;2022-09-21T16:23:33;17.60;99.90
5394;DHT22;2720;52.396;10.064;2022-09-21T16:26:04;17.30;99.90
5394;DHT22;2720;52.396;10.064;2022-09-21T16:28:35;17.00;99.90
5394;DHT22;2720;52.396;10.064;2022-09-21T16:31:20;16.90;99.90
5394;DHT22;2720;52.396;10.064;2022-09-21T16:33:57;16.70;99.90
5394;DHT22;2720;52.396;10.064;2022-09-21T16:36:38;16.50;99.90
5394;DHT22;2720;52.396;10.064;2022-09-21T16:39:13;16.30;99.90
5394;DHT22;2720;52.396;10.064;2022-09-21T16:41:41;16.20;99.90
5394;DHT22;2720;52.396;10.064;2022-09-21T16:44:09;16.00;99.90
5394;DHT22;2720;52.396;10.064;2022-09-21T16:46:37;15.90;99.90